Time;durP1;ratioP1;P1;durP2;ratioP2;P2;SDS_P1;SDS_P2;PMS_P1;PMS_P2;Temp;Humidity;BMP_temperature;BMP_pressure;BME280_temperature;BME280_humidity;BME280_pressure;Samples;Min_cycle;Max_cycle;Signal;HPM_P1;HPM_P2
2022/01/01 00:02:15;;;;;;;1.63;1.40;;;18.00;42.90;;;;;;5069507;28;20756;-66
2022/01/01 00:04:42;;;;;;;1.70;1.60;;;18.10;43.00;;;;;;5069533;28;20963;-66
2022/01/01 00:07:08;;;;;;;1.77;1.67;;;18.00;42.90;;;;;;5069305;28;20792;-66
2022/01/01 00:09:34;;;;;;;1.53;1.43;;;18.00;42.90;;;;;;5069291;28;20506;-66
2022/01/01 00:12:00;;;;;;;1.50;1.40;;;18.00;42.90;;;;;;5067170;28;20927;-66
2022/01/01 00:14:25;;;;;;;1.40;1.30;;;18.10;43.00;;;;;;5069257;28;20209;-66
2022/01/01 00:16:51;;;;;;;1.60;1.50;;;18.00;42.90;;;;;;5051065;28;20222;-66
2022/01/01 00:19:17;;;;;;;1.60;1.50;;;18.00;42.90;;;;;;5069153;28;20704;-66
2022/01/01 00:21:43;;;;;;;1.73;1.63;;;18.10;43.00;;;;;;5069690;28;20275;-66
2022/01/01 00:24:09;;;;;;;1.90;1.80;;;18.00;42.90;;;;;;5069243;28;20213;-66
2022/01/01 00:26:35;;;;;;;1.60;1.50;;;18.00;42.90;;;;;;5069523;28;20413;-66
2022/01/01 00:29:01;;;;;;;1.60;1.50;;;18.00;42.90;;;;;;5069050;28;20979;-66
2022/01/01 00:31:28;;;;;;;1.90;1.80;;;18.00;42.90;;;;;;5069373;28;20584;-66
2022/01/01 00:33:53;;;;;;;1.87;1.77;;;18.00;42.90;;;;;;5068959;28;20218;-66
2022/01/01 00:36:19;;;;;;;2.23;2.13;;;18.00;42.90;;;;;;5068811;28;20428;-66
2022/01/01 00:38:45;;;;;;;1.93;1.50;;;18.00;42.90;;;;;;5068929;28;20371;-66
2022/01/01 00:41:10;;;;;;;1.60;1.50;;;18.00;42.90;;;;;;5069563;28;20220;-66
2022/01/01 00:43:36;;;;;;;1.70;1.60;;;18.00;42.90;;;;;;5069204;28;20213;-66
2022/01/01 00:46:02;;;;;;;2.00;1.90;;;18.00;42.90;;;;;;5068977;28;20306;-66
2022/01/01 00:48:27;;;;;;;2.00;1.90;;;18.10;43.00;;;;;;5069253;28;20706;-66
2022/01/01 00:50:53;;;;;;;1.77;1.67;;;18.00;42.90;;;;;;5070353;28;20237;-66
2022/01/01 00:53:19;;;;;;;1.90;1.80;;;18.00;42.90;;;;;;5054815;28;20596;-66
2022/01/01 00:55:44;;;;;;;1.83;1.60;;;18.10;43.00;;;;;;5073058;28;20682;-66
2022/01/01 00:58:10;;;;;;;1.97;1.87;;;18.10;43.00;;;;;;5073242;28;20224;-66
2022/01/01 01:00:36;;;;;;;1.77;1.67;;;18.00;42.90;;;;;;5072752;28;20696;-66
2022/01/01 01:03:08;;;;;;;1.80;1.70;;;18.00;42.90;;;;;;5072466;28;20218;-66
2022/01/01 01:05:34;;;;;;;1.90;1.80;;;18.10;43.00;;;;;;5072733;28;20230;-66
2022/01/01 01:07:59;;;;;;;1.93;1.80;;;18.10;43.00;;;;;;5072584;28;20984;-66
2022/01/01 01:10:25;;;;;;;1.80;1.70;;;18.00;42.90;;;;;;5071632;28;20248;-66
2022/01/01 01:12:52;;;;;;;1.87;1.77;;;18.10;43.00;;;;;;5071819;28;20569;-66
2022/01/01 01:15:18;;;;;;;2.10;2.00;;;18.00;42.90;;;;;;5072567;28;20234;-66
2022/01/01 01:17:49;;;;;;;1.80;1.70;;;18.00;42.90;;;;;;5072782;28;20489;-66
2022/01/01 01:20:16;;;;;;;1.70;1.60;;;18.00;42.90;;;;;;5070984;28;20217;-66
2022/01/01 01:22:42;;;;;;;2.03;1.93;;;18.00;42.90;;;;;;5072998;28;20413;-66
2022/01/01 01:25:08;;;;;;;2.00;1.90;;;18.00;42.90;;;;;;5072367;28;20543;-66
2022/01/01 01:27:35;;;;;;;1.80;1.70;;;18.00;42.90;;;;;;5068814;28;20704;-66
2022/01/01 01:30:03;;;;;;;2.50;2.27;;;18.00;42.90;;;;;;5072183;28;20512;-66
2022/01/01 01:32:28;;;;;;;2.30;2.20;;;18.00;42.90;;;;;;5072301;28;20429;-66
2022/01/01 01:34:54;;;;;;;2.30;2.10;;;18.00;42.90;;;;;;5072163;28;20421;-66
2022/01/01 01:37:21;;;;;;;2.20;2.10;;;18.00;42.90;;;;;;5072131;28;20213;-66
2022/01/01 01:39:47;;;;;;;1.53;1.43;;;18.00;42.90;;;;;;5072046;28;20252;-66
2022/01/01 01:42:14;;;;;;;2.37;2.20;;;18.00;42.90;;;;;;5068728;28;20450;-66
2022/01/01 01:44:43;;;;;;;1.93;1.83;;;18.00;42.90;;;;;;5072286;28;20237;-66
2022/01/01 01:47:16;;;;;;;2.40;2.20;;;18.00;42.90;;;;;;5072089;28;20413;-67
2022/01/01 01:49:44;;;;;;;2.13;2.03;;;18.00;42.90;;;;;;5072375;28;20455;-66
2022/01/01 01:52:11;;;;;;;2.10;2.00;;;18.00;42.90;;;;;;5071583;28;20413;-66
2022/01/01 01:54:37;;;;;;;1.97;1.87;;;18.00;42.90;;;;;;5071952;28;20435;-66
2022/01/01 01:57:03;;;;;;;2.13;2.03;;;18.00;42.90;;;;;;5071566;28;20463;-66
2022/01/01 01:59:29;;;;;;;2.20;2.10;;;18.00;42.90;;;;;;5071599;28;20304;-66
2022/01/01 02:01:55;;;;;;;2.10;2.00;;;18.00;42.90;;;;;;5070259;28;20980;-66
2022/01/01 02:04:21;;;;;;;2.60;2.40;;;18.00;42.90;;;;;;5071434;28;20241;-66
2022/01/01 02:06:48;;;;;;;2.03;1.93;;;18.00;42.90;;;;;;5071556;28;20565;-66
2022/01/01 02:09:14;;;;;;;2.10;2.00;;;18.00;42.90;;;;;;5068302;28;20300;-66
2022/01/01 02:11:41;;;;;;;2.57;2.47;;;18.00;42.90;;;;;;5072290;28;20883;-66
2022/01/01 02:19:24;;;;;;;2.47;2.37;;;18.00;42.90;;;;;;5071415;28;20866;-66
2022/01/01 02:21:53;;;;;;;2.40;2.20;;;18.00;42.90;;;;;;5071205;28;20214;-66
2022/01/01 02:24:18;;;;;;;2.47;2.30;;;18.00;42.90;;;;;;5067922;28;20417;-66
2022/01/01 02:26:44;;;;;;;2.70;2.50;;;18.00;42.90;;;;;;5071441;28;20771;-66
2022/01/01 02:29:10;;;;;;;2.33;2.23;;;18.00;42.90;;;;;;5071362;28;20345;-66
2022/01/01 02:31:36;;;;;;;2.43;2.30;;;18.10;43.00;;;;;;5070916;28;20218;-66
2022/01/01 02:34:08;;;;;;;2.70;2.50;;;18.00;42.90;;;;;;5070978;28;20910;-66
2022/01/01 02:36:42;;;;;;;2.40;2.20;;;18.10;43.00;;;;;;5071070;28;20233;-66
2022/01/01 02:39:17;;;;;;;3.07;2.87;;;18.10;43.00;;;;;;5071019;28;20871;-66
2022/01/01 02:41:44;;;;;;;2.40;2.20;;;18.00;42.90;;;;;;5070725;28;20446;-66
2022/01/01 02:44:10;;;;;;;2.77;2.67;;;18.00;42.90;;;;;;5070852;28;20449;-66
2022/01/01 02:46:36;;;;;;;2.70;2.50;;;18.00;42.90;;;;;;5070787;28;20435;-66
2022/01/01 02:49:03;;;;;;;2.60;2.40;;;18.00;42.90;;;;;;5070263;28;20449;-66
2022/01/01 02:51:29;;;;;;;2.20;2.07;;;18.10;43.00;;;;;;5070731;28;20420;-66
2022/01/01 02:53:55;;;;;;;2.30;2.20;;;18.10;43.00;;;;;;5070561;28;21009;-66
2022/01/01 02:56:21;;;;;;;2.33;2.23;;;18.00;42.90;;;;;;5070589;28;20439;-66
2022/01/01 02:58:46;;;;;;;2.53;2.33;;;18.00;42.90;;;;;;5070544;28;20259;-66
2022/01/01 03:01:12;;;;;;;2.40;2.20;;;18.00;42.90;;;;;;5070926;28;20213;-66
2022/01/01 03:03:38;;;;;;;2.20;2.10;;;18.00;42.90;;;;;;5070485;28;20663;-66
2022/01/01 03:06:04;;;;;;;2.60;2.47;;;18.00;42.90;;;;;;5070246;28;20222;-66
2022/01/01 03:08:29;;;;;;;2.27;2.13;;;18.00;42.90;;;;;;5070115;28;20799;-66
2022/01/01 03:10:55;;;;;;;2.67;2.47;;;18.00;42.90;;;;;;5070023;28;20597;-66
2022/01/01 03:13:21;;;;;;;2.30;2.20;;;18.00;42.90;;;;;;5070220;28;20616;-66
2022/01/01 03:15:47;;;;;;;2.50;2.40;;;18.00;42.90;;;;;;5070172;28;20241;-66
2022/01/01 03:18:13;;;;;;;2.53;2.37;;;18.00;42.90;;;;;;5070664;28;20218;-66
2022/01/01 03:20:39;;;;;;;2.60;2.40;;;18.10;43.00;;;;;;5070331;28;20222;-66
2022/01/01 03:23:05;;;;;;;2.60;2.50;;;18.00;42.90;;;;;;5069728;28;20773;-66
2022/01/01 03:25:31;;;;;;;2.33;2.23;;;18.00;42.90;;;;;;5069712;28;20425;-66
2022/01/01 03:27:56;;;;;;;2.40;2.30;;;18.00;42.90;;;;;;5069794;28;20217;-66
2022/01/01 03:30:22;;;;;;;2.60;2.50;;;18.00;42.90;;;;;;5069731;28;20672;-66
2022/01/01 03:32:48;;;;;;;2.60;2.40;;;18.00;42.90;;;;;;5069957;28;20570;-66
2022/01/01 03:35:14;;;;;;;2.30;2.20;;;18.00;42.90;;;;;;5069979;28;20209;-66
2022/01/01 03:37:40;;;;;;;2.60;2.50;;;18.00;43.00;;;;;;5070469;28;20249;-66
2022/01/01 03:40:06;;;;;;;2.63;2.43;;;18.00;42.90;;;;;;5070184;28;20604;-66
2022/01/01 03:42:31;;;;;;;3.37;3.07;;;18.00;42.90;;;;;;5069522;28;20245;-66
2022/01/01 03:44:57;;;;;;;2.40;2.30;;;18.10;43.00;;;;;;5070020;28;20999;-66
2022/01/01 03:47:23;;;;;;;3.67;2.40;;;18.00;42.90;;;;;;5069528;28;20206;-66
2022/01/01 03:49:49;;;;;;;2.43;2.23;;;18.00;42.90;;;;;;5069306;28;20248;-66
2022/01/01 03:52:15;;;;;;;2.53;2.33;;;18.00;42.90;;;;;;5069512;28;20218;-66
2022/01/01 03:54:41;;;;;;;2.90;2.70;;;18.10;43.00;;;;;;5069149;28;20405;-66
2022/01/01 03:57:07;;;;;;;2.40;2.30;;;18.00;42.90;;;;;;5069486;28;20831;-66
2022/01/01 03:59:33;;;;;;;3.27;3.07;;;18.00;42.90;;;;;;5069647;28;20425;-66
2022/01/01 04:01:59;;;;;;;2.80;2.60;;;18.00;42.90;;;;;;5069495;28;20700;-66
2022/01/01 04:04:26;;;;;;;2.10;2.00;;;18.00;42.90;;;;;;5069308;28;20437;-66
2022/01/01 04:06:52;;;;;;;2.10;2.00;;;18.00;42.90;;;;;;5069496;28;20305;-66
2022/01/01 04:09:19;;;;;;;2.60;2.50;;;18.00;42.90;;;;;;5069278;28;20925;-66
2022/01/01 04:11:45;;;;;;;2.60;2.40;;;18.10;43.00;;;;;;5065875;28;20435;-66
2022/01/01 04:14:13;;;;;;;2.60;2.50;;;18.00;42.90;;;;;;5069571;28;20504;-66
2022/01/01 04:16:39;;;;;;;2.33;2.23;;;18.00;42.90;;;;;;5069244;28;20776;-66
2022/01/01 04:19:05;;;;;;;2.10;2.00;;;18.00;42.90;;;;;;5069076;28;20431;-66
2022/01/01 04:21:31;;;;;;;2.37;2.27;;;18.10;43.00;;;;;;5069199;28;20448;-66
2022/01/01 04:23:56;;;;;;;2.53;2.33;;;18.10;43.00;;;;;;5069142;28;20607;-66
2022/01/01 04:26:24;;;;;;;2.47;2.37;;;18.00;42.90;;;;;;5068778;28;20214;-66
2022/01/01 04:28:49;;;;;;;2.30;2.13;;;18.00;42.90;;;;;;5068981;28;20313;-66
2022/01/01 04:31:15;;;;;;;2.80;2.60;;;18.00;42.90;;;;;;5069051;28;20522;-66
2022/01/01 04:33:42;;;;;;;2.50;2.30;;;18.00;42.90;;;;;;5069594;28;20210;-66
2022/01/01 04:36:07;;;;;;;2.60;2.40;;;18.00;42.90;;;;;;5051061;28;20218;-66
2022/01/01 04:38:37;;;;;;;2.13;2.03;;;18.00;42.90;;;;;;5069147;28;20446;-66
2022/01/01 04:41:04;;;;;;;2.10;2.00;;;18.00;42.90;;;;;;5068712;28;20226;-66
2022/01/01 04:43:30;;;;;;;2.77;2.67;;;18.00;42.90;;;;;;5069309;28;20914;-66
2022/01/01 04:45:56;;;;;;;1.97;1.87;;;18.00;42.90;;;;;;5068948;28;20458;-66
2022/01/01 04:48:22;;;;;;;2.30;2.20;;;18.00;42.90;;;;;;5069034;28;20237;-66
2022/01/01 04:50:48;;;;;;;2.60;2.40;;;18.00;42.90;;;;;;5068665;28;20504;-66
2022/01/01 04:53:17;;;;;;;1.80;1.70;;;18.00;42.90;;;;;;5067883;28;20267;-66
2022/01/01 04:55:44;;;;;;;2.00;1.90;;;18.00;42.90;;;;;;5069494;28;20299;-66
2022/01/01 04:58:10;;;;;;;2.50;2.33;;;18.00;42.90;;;;;;5069221;28;20473;-66
2022/01/01 05:00:35;;;;;;;2.30;2.20;;;18.00;42.90;;;;;;5068867;28;20824;-66
2022/01/01 05:03:01;;;;;;;2.40;2.30;;;18.00;42.90;;;;;;5068604;28;20222;-66
2022/01/01 05:05:27;;;;;;;2.50;2.30;;;18.00;42.90;;;;;;5068843;28;20263;-66
2022/01/01 05:07:53;;;;;;;2.43;2.33;;;18.00;42.90;;;;;;5068359;28;20801;-66
2022/01/01 05:10:18;;;;;;;2.30;2.10;;;18.00;42.90;;;;;;5068690;28;20230;-66
2022/01/01 05:12:44;;;;;;;2.20;2.10;;;18.00;42.90;;;;;;5068692;28;20232;-66
2022/01/01 05:15:09;;;;;;;2.50;2.30;;;18.00;42.90;;;;;;5069070;28;20210;-66
2022/01/01 05:17:35;;;;;;;2.90;2.70;;;18.00;42.90;;;;;;5068792;28;20287;-66
2022/01/01 05:20:02;;;;;;;2.00;1.90;;;18.10;43.00;;;;;;5068884;28;20298;-66
2022/01/01 05:22:27;;;;;;;2.30;2.10;;;18.00;42.90;;;;;;5068773;28;20210;-66
2022/01/01 05:24:56;;;;;;;2.53;2.43;;;18.00;42.90;;;;;;5068567;28;20983;-66
2022/01/01 05:27:22;;;;;;;2.00;1.90;;;18.00;42.90;;;;;;5068841;28;20232;-66
2022/01/01 05:29:47;;;;;;;2.30;2.20;;;18.00;42.90;;;;;;5068616;28;20951;-66
2022/01/01 05:32:13;;;;;;;2.07;1.97;;;18.00;42.90;;;;;;5069111;28;20224;-66
2022/01/01 05:34:39;;;;;;;2.50;2.30;;;18.00;42.90;;;;;;5068780;28;20700;-66
2022/01/01 05:37:05;;;;;;;2.70;2.50;;;18.00;42.90;;;;;;5069328;28;20564;-66
2022/01/01 05:39:31;;;;;;;2.13;2.03;;;18.00;42.90;;;;;;5072035;28;20221;-66
2022/01/01 05:41:57;;;;;;;1.97;1.87;;;18.00;42.90;;;;;;5071727;28;20985;-66
2022/01/01 05:44:23;;;;;;;2.30;2.20;;;18.00;42.90;;;;;;5072168;28;20213;-66
2022/01/01 05:46:50;;;;;;;2.30;2.10;;;18.00;42.90;;;;;;5071915;28;20301;-66
2022/01/01 05:49:16;;;;;;;2.20;2.10;;;18.00;42.90;;;;;;5072024;28;20264;-66
2022/01/01 05:51:41;;;;;;;2.13;2.00;;;18.00;42.90;;;;;;5072407;28;20876;-66
2022/01/01 05:54:07;;;;;;;2.70;2.50;;;18.00;42.90;;;;;;5071750;28;20292;-66
2022/01/01 05:56:33;;;;;;;2.23;2.13;;;18.00;42.90;;;;;;5071609;28;20294;-66
2022/01/01 05:58:58;;;;;;;2.47;2.27;;;18.00;42.90;;;;;;5068057;28;20230;-66
2022/01/01 06:01:24;;;;;;;2.67;2.47;;;18.00;42.90;;;;;;5071786;28;20214;-66
2022/01/01 06:03:49;;;;;;;2.60;2.40;;;18.00;42.90;;;;;;5071392;28;20230;-66
2022/01/01 06:06:15;;;;;;;2.00;1.90;;;18.00;42.90;;;;;;5071736;28;20253;-66
2022/01/01 06:08:41;;;;;;;2.00;1.90;;;18.00;42.90;;;;;;5072244;28;20213;-66
2022/01/01 06:11:06;;;;;;;2.20;2.10;;;18.00;42.90;;;;;;5071257;28;20297;-66
2022/01/01 06:13:32;;;;;;;2.13;1.93;;;18.00;42.90;;;;;;5071330;28;20209;-66
2022/01/01 06:15:58;;;;;;;1.97;1.87;;;18.00;42.90;;;;;;5071169;28;20265;-66
2022/01/01 06:18:23;;;;;;;1.90;1.70;;;18.00;42.90;;;;;;5071129;28;20214;-66
2022/01/01 06:20:49;;;;;;;2.00;1.90;;;18.00;42.90;;;;;;5053163;28;20222;-66
2022/01/01 06:23:14;;;;;;;2.27;2.07;;;18.00;42.90;;;;;;5071129;28;20222;-66
2022/01/01 06:25:40;;;;;;;2.07;1.97;;;18.00;42.90;;;;;;5071882;28;20209;-66
2022/01/01 06:28:06;;;;;;;1.97;1.87;;;18.00;42.90;;;;;;5071163;28;20240;-66
2022/01/01 06:30:35;;;;;;;1.63;1.53;;;18.00;42.90;;;;;;5071044;28;20225;-66
2022/01/01 06:33:15;;;;;;;2.00;1.90;;;18.00;42.90;;;;;;5070943;28;20218;-66
2022/01/01 06:35:42;;;;;;;2.20;2.10;;;18.00;42.90;;;;;;5070525;28;20519;-66
2022/01/01 06:38:09;;;;;;;1.90;1.80;;;18.00;42.90;;;;;;5070955;28;20447;-66
2022/01/01 06:40:36;;;;;;;1.90;1.80;;;18.00;42.90;;;;;;5071027;28;20439;-66
2022/01/01 06:43:02;;;;;;;2.07;1.97;;;18.00;42.90;;;;;;5070878;28;20447;-66
2022/01/01 06:45:28;;;;;;;2.00;1.70;;;18.00;42.90;;;;;;5070855;28;20440;-66
2022/01/01 06:47:53;;;;;;;1.93;1.83;;;18.00;42.90;;;;;;5070371;28;20919;-66
2022/01/01 06:50:19;;;;;;;2.10;2.00;;;18.00;42.90;;;;;;5070455;28;20316;-66
2022/01/01 06:52:45;;;;;;;1.93;1.83;;;18.00;42.90;;;;;;5070901;28;20685;-66
2022/01/01 06:55:12;;;;;;;1.97;1.87;;;18.00;42.90;;;;;;5071233;28;20222;-66
2022/01/01 06:57:40;;;;;;;1.83;1.70;;;18.00;42.90;;;;;;5070534;28;20794;-66
2022/01/01 07:00:07;;;;;;;1.70;1.60;;;18.00;42.90;;;;;;5070535;28;20411;-66
2022/01/01 07:02:41;;;;;;;1.83;1.73;;;18.00;42.90;;;;;;5068926;28;20417;-66
2022/01/01 07:05:08;;;;;;;1.70;1.60;;;18.00;42.90;;;;;;5069094;28;20506;-66
2022/01/01 07:07:33;;;;;;;1.67;1.57;;;18.00;42.90;;;;;;5070428;28;20442;-66
2022/01/01 07:09:59;;;;;;;1.80;1.70;;;18.00;42.90;;;;;;5070259;28;20458;-66
2022/01/01 07:12:24;;;;;;;1.70;1.60;;;18.00;42.90;;;;;;5070310;28;20214;-66
2022/01/01 07:14:50;;;;;;;1.63;1.53;;;18.00;42.90;;;;;;5070229;28;20670;-66
2022/01/01 07:17:16;;;;;;;2.23;2.13;;;18.00;42.90;;;;;;5070329;28;20210;-66
2022/01/01 07:19:41;;;;;;;1.97;1.87;;;18.00;42.90;;;;;;5070715;28;20689;-66
2022/01/01 07:22:07;;;;;;;2.27;2.17;;;18.00;42.90;;;;;;5069899;28;20209;-66
2022/01/01 07:24:32;;;;;;;1.77;1.67;;;18.00;42.90;;;;;;5069881;28;20224;-66
2022/01/01 07:26:58;;;;;;;2.00;1.90;;;18.10;43.00;;;;;;5069942;28;20299;-66
2022/01/01 07:29:24;;;;;;;1.90;1.80;;;18.00;42.90;;;;;;5070000;28;20252;-66
2022/01/01 07:31:53;;;;;;;1.70;1.60;;;18.00;42.90;;;;;;5069723;28;20297;-66
2022/01/01 07:34:19;;;;;;;1.67;1.57;;;18.00;42.90;;;;;;5066437;28;20313;-66
2022/01/01 07:36:45;;;;;;;2.07;1.97;;;18.00;42.90;;;;;;5069279;28;20447;-66
2022/01/01 07:39:11;;;;;;;1.80;1.70;;;18.00;42.90;;;;;;5070186;28;20495;-66
2022/01/01 07:41:37;;;;;;;1.80;1.70;;;18.00;42.90;;;;;;5051594;28;20213;-66
2022/01/01 07:44:02;;;;;;;1.93;1.83;;;18.00;42.90;;;;;;5069770;28;20221;-66
2022/01/01 07:46:28;;;;;;;1.77;1.67;;;18.00;42.90;;;;;;5069853;28;20422;-66
2022/01/01 07:48:54;;;;;;;1.80;1.70;;;18.00;42.90;;;;;;5051470;28;20667;-66
2022/01/01 07:51:19;;;;;;;1.80;1.70;;;18.00;42.90;;;;;;5069141;28;20216;-66
2022/01/01 07:53:45;;;;;;;2.00;1.90;;;18.00;42.90;;;;;;5069760;28;20232;-66
2022/01/01 07:56:10;;;;;;;1.70;1.60;;;18.00;42.90;;;;;;5070039;28;20588;-66
2022/01/01 07:58:36;;;;;;;1.70;1.60;;;18.00;42.90;;;;;;5069455;28;20237;-66
2022/01/01 08:01:02;;;;;;;1.50;1.40;;;18.00;42.90;;;;;;5068584;28;20685;-66
2022/01/01 08:03:27;;;;;;;1.77;1.67;;;18.00;42.90;;;;;;5069345;28;20571;-66
2022/01/01 08:05:54;;;;;;;1.67;1.57;;;18.00;42.90;;;;;;5069371;28;20240;-66
2022/01/01 08:08:20;;;;;;;1.70;1.60;;;18.00;42.90;;;;;;5067128;28;20221;-66
2022/01/01 08:10:46;;;;;;;1.73;1.63;;;18.00;42.90;;;;;;5069261;28;20455;-66
2022/01/01 08:13:12;;;;;;;1.70;1.60;;;18.10;43.00;;;;;;5069926;28;20480;-66
2022/01/01 08:15:37;;;;;;;1.50;1.40;;;18.00;42.90;;;;;;5069355;28;20270;-66
2022/01/01 08:18:03;;;;;;;1.90;1.80;;;18.00;42.90;;;;;;5069073;28;20226;-66
2022/01/01 08:20:29;;;;;;;1.60;1.50;;;18.00;42.90;;;;;;5068197;28;20217;-66
2022/01/01 08:22:55;;;;;;;2.03;1.93;;;18.00;42.90;;;;;;5069039;28;20420;-66
2022/01/01 08:25:21;;;;;;;1.80;1.70;;;18.00;42.90;;;;;;5050504;28;20220;-66
2022/01/01 08:27:47;;;;;;;1.50;1.40;;;18.00;42.90;;;;;;5069125;28;20222;-66
2022/01/01 08:30:14;;;;;;;1.90;1.80;;;18.00;42.90;;;;;;5069653;28;20432;-66
2022/01/01 08:32:41;;;;;;;1.73;1.63;;;18.00;42.90;;;;;;5069465;28;20450;-66
2022/01/01 08:35:07;;;;;;;1.60;1.50;;;18.00;42.90;;;;;;5068940;28;20429;-66
2022/01/01 08:37:33;;;;;;;1.70;1.60;;;18.00;42.90;;;;;;5069203;28;20451;-66
2022/01/01 08:40:01;;;;;;;1.73;1.60;;;18.00;42.90;;;;;;5069091;28;20525;-66
2022/01/01 08:42:26;;;;;;;1.87;1.50;;;18.00;42.90;;;;;;5069044;28;20291;-66
2022/01/01 08:44:52;;;;;;;1.43;1.33;;;18.00;42.90;;;;;;5051132;28;20482;-66
2022/01/01 08:47:18;;;;;;;1.90;1.80;;;18.00;43.00;;;;;;5068979;28;20221;-66
2022/01/01 08:49:43;;;;;;;1.80;1.70;;;18.00;42.90;;;;;;5069350;28;20238;-66
2022/01/01 08:52:11;;;;;;;1.70;1.60;;;18.00;43.00;;;;;;5069073;28;20616;-66
2022/01/01 08:54:37;;;;;;;1.87;1.77;;;18.00;42.90;;;;;;5068905;28;20220;-66
2022/01/01 08:57:03;;;;;;;1.50;1.40;;;18.00;42.90;;;;;;5049847;28;20443;-66
2022/01/01 08:59:28;;;;;;;1.77;1.67;;;18.10;43.00;;;;;;5068834;28;20618;-66
2022/01/01 09:01:54;;;;;;;1.80;1.70;;;18.00;42.90;;;;;;5068825;28;20221;-66
2022/01/01 09:04:19;;;;;;;1.40;1.30;;;18.00;42.90;;;;;;5050800;28;20222;-66
2022/01/01 09:06:45;;;;;;;1.50;1.40;;;18.00;42.90;;;;;;5050774;28;20264;-66
2022/01/01 09:09:11;;;;;;;1.30;1.20;;;18.00;42.90;;;;;;5068942;28;20224;-66
2022/01/01 09:11:37;;;;;;;1.53;1.43;;;18.00;42.90;;;;;;5070751;28;20271;-66
2022/01/01 09:14:02;;;;;;;1.60;1.50;;;18.00;42.90;;;;;;5072557;28;20217;-66
2022/01/01 09:16:30;;;;;;;1.30;1.20;;;18.10;43.00;;;;;;5070373;28;20217;-66
2022/01/01 09:18:56;;;;;;;1.67;1.57;;;18.00;42.90;;;;;;5072432;28;20684;-66
2022/01/01 09:21:23;;;;;;;1.40;1.30;;;18.00;42.90;;;;;;5072408;28;20446;-66
2022/01/01 09:23:48;;;;;;;1.90;1.80;;;18.00;42.90;;;;;;5072355;28;20780;-66
2022/01/01 09:26:14;;;;;;;1.30;1.20;;;18.00;42.90;;;;;;5071251;28;20927;-66
2022/01/01 09:28:40;;;;;;;1.80;1.60;;;18.00;42.90;;;;;;5072927;28;20216;-66
2022/01/01 09:31:06;;;;;;;1.53;1.43;;;18.00;42.90;;;;;;5072035;28;20233;-66
2022/01/01 09:33:32;;;;;;;1.83;1.73;;;18.00;42.90;;;;;;5072293;28;20221;-66
2022/01/01 09:35:59;;;;;;;1.30;1.20;;;18.00;42.90;;;;;;5069970;28;20225;-66
2022/01/01 09:38:25;;;;;;;1.70;1.60;;;18.00;42.90;;;;;;5072199;28;20552;-66
2022/01/01 09:40:55;;;;;;;1.43;1.33;;;18.00;42.90;;;;;;5071717;28;20442;-66
2022/01/01 09:43:22;;;;;;;1.40;1.30;;;18.00;42.90;;;;;;5071996;28;20442;-66
2022/01/01 09:45:52;;;;;;;1.30;1.20;;;18.00;42.90;;;;;;5070454;28;20421;-66
2022/01/01 09:48:20;;;;;;;1.80;1.70;;;18.00;42.90;;;;;;5068943;28;20424;-66
2022/01/01 09:50:49;;;;;;;1.63;1.53;;;18.00;42.90;;;;;;5071794;28;20429;-66
2022/01/01 09:53:15;;;;;;;1.60;1.50;;;18.00;42.90;;;;;;5071211;28;20405;-66
2022/01/01 09:55:42;;;;;;;1.43;1.33;;;18.00;42.90;;;;;;5072339;28;20447;-66
2022/01/01 09:58:07;;;;;;;1.60;1.50;;;18.00;42.90;;;;;;5042170;28;20477;-66
2022/01/01 10:00:33;;;;;;;1.33;1.23;;;18.00;42.90;;;;;;5071685;28;20455;-66
2022/01/01 10:02:58;;;;;;;1.50;1.40;;;18.00;42.90;;;;;;5071520;28;20228;-66
2022/01/01 10:05:24;;;;;;;1.67;1.40;;;18.00;42.90;;;;;;5071812;28;21188;-66
2022/01/01 10:07:50;;;;;;;1.50;1.40;;;18.00;42.90;;;;;;5071407;28;20214;-66
2022/01/01 10:10:24;;;;;;;1.50;1.40;;;18.00;42.90;;;;;;5071320;28;20225;-66
2022/01/01 10:12:50;;;;;;;1.30;1.20;;;18.00;43.00;;;;;;5070158;28;20608;-66
2022/01/01 10:15:16;;;;;;;1.50;1.40;;;18.00;42.90;;;;;;5071427;28;20421;-66
2022/01/01 10:17:42;;;;;;;1.53;1.43;;;18.00;42.90;;;;;;5072110;28;20241;-66
2022/01/01 10:20:09;;;;;;;1.33;1.23;;;18.00;42.90;;;;;;5071198;28;20965;-66
2022/01/01 10:22:37;;;;;;;1.53;1.43;;;18.00;42.90;;;;;;5070491;28;20398;-66
2022/01/01 10:28:05;;;;;;;1.50;1.40;;;18.00;42.90;;;;;;4996985;28;20455;-66
2022/01/01 10:30:38;;;;;;;1.67;1.37;;;18.00;42.90;;;;;;5071141;28;20458;-66
2022/01/01 10:33:16;;;;;;;1.50;1.40;;;18.00;42.90;;;;;;5070949;28;20500;-66
2022/01/01 10:35:47;;;;;;;1.67;1.57;;;18.00;42.90;;;;;;5070130;28;20492;-66
2022/01/01 10:38:20;;;;;;;1.40;1.30;;;18.00;42.90;;;;;;5071233;28;20453;-66
2022/01/01 10:40:46;;;;;;;1.40;1.30;;;18.00;42.90;;;;;;5069831;28;20475;-66
2022/01/01 10:43:16;;;;;;;1.23;1.13;;;18.00;42.90;;;;;;5071484;28;20416;-66
2022/01/01 10:45:47;;;;;;;2.17;1.60;;;18.00;42.90;;;;;;5071355;28;20414;-66
2022/01/01 10:48:23;;;;;;;1.23;1.13;;;18.00;42.90;;;;;;5071017;28;20438;-66
2022/01/01 10:50:51;;;;;;;1.40;1.30;;;18.00;42.90;;;;;;5070324;28;20440;-66
2022/01/01 10:53:24;;;;;;;1.20;1.10;;;18.00;42.90;;;;;;5070865;28;20436;-66
2022/01/01 10:55:55;;;;;;;1.33;1.23;;;18.00;42.90;;;;;;5069636;28;20480;-66
2022/01/01 10:58:31;;;;;;;1.50;1.40;;;18.00;42.90;;;;;;5067949;28;20409;-66
2022/01/01 11:01:01;;;;;;;1.67;1.57;;;18.10;43.00;;;;;;5070413;28;20442;-66
2022/01/01 11:03:28;;;;;;;1.30;1.20;;;18.00;42.90;;;;;;5067873;28;20462;-66
2022/01/01 11:06:17;;;;;;;1.60;1.50;;;18.00;42.90;;;;;;5070304;28;20457;-65
2022/01/01 11:08:45;;;;;;;1.50;1.40;;;18.10;43.00;;;;;;5070326;28;20451;-66
2022/01/01 11:11:13;;;;;;;1.20;1.10;;;18.00;42.90;;;;;;5070442;28;20893;-66
2022/01/01 11:13:40;;;;;;;1.23;1.13;;;18.00;42.90;;;;;;5070307;28;21500;-66
2022/01/01 11:16:07;;;;;;;1.30;1.20;;;18.00;42.90;;;;;;5069533;28;20431;-66
2022/01/01 11:18:34;;;;;;;1.30;1.20;;;18.00;42.90;;;;;;5070303;28;20424;-66
2022/01/01 11:21:00;;;;;;;1.40;1.30;;;18.00;43.00;;;;;;5052142;28;20926;-66
2022/01/01 11:23:27;;;;;;;1.50;1.40;;;18.10;43.00;;;;;;5067428;28;20439;-66
2022/01/01 11:25:54;;;;;;;1.40;1.30;;;18.10;43.00;;;;;;5069747;28;20436;-66
2022/01/01 11:28:21;;;;;;;1.70;1.60;;;18.10;43.00;;;;;;5069987;28;20913;-66
2022/01/01 11:31:00;;;;;;;1.23;1.13;;;18.00;42.90;;;;;;5069558;28;20847;-66
2022/01/01 11:33:39;;;;;;;1.40;1.30;;;18.10;43.00;;;;;;5069663;28;20432;-66
2022/01/01 11:36:05;;;;;;;1.60;1.50;;;18.00;42.90;;;;;;5068627;28;20436;-66
2022/01/01 11:38:37;;;;;;;1.20;1.10;;;18.10;43.00;;;;;;5066650;28;20453;-66
2022/01/01 11:41:06;;;;;;;1.40;1.30;;;18.10;43.00;;;;;;5069545;28;20424;-66
2022/01/01 11:43:51;;;;;;;1.20;1.10;;;18.00;42.90;;;;;;5069752;28;20428;-66
2022/01/01 11:46:22;;;;;;;1.33;1.23;;;18.00;43.00;;;;;;5068104;28;20494;-66
2022/01/01 11:48:52;;;;;;;1.37;1.27;;;18.00;42.90;;;;;;5069657;28;20425;-66
2022/01/01 11:51:38;;;;;;;1.30;1.20;;;18.10;43.00;;;;;;5069405;28;20437;-66
2022/01/01 11:54:14;;;;;;;1.30;1.20;;;18.10;43.00;;;;;;5068039;28;20573;-66
2022/01/01 11:56:46;;;;;;;1.27;1.17;;;18.00;43.00;;;;;;5069802;28;20450;-66
2022/01/01 11:59:21;;;;;;;1.30;1.20;;;18.00;42.90;;;;;;5069520;28;20451;-66
2022/01/01 12:01:51;;;;;;;1.47;1.37;;;18.10;43.10;;;;;;5069220;28;20480;-66
2022/01/01 12:04:28;;;;;;;1.40;1.30;;;18.00;42.90;;;;;;5067646;28;20525;-66
2022/01/01 12:06:58;;;;;;;1.10;1.00;;;18.00;42.90;;;;;;5069435;28;20447;-66
2022/01/01 12:09:24;;;;;;;1.40;1.30;;;18.00;42.90;;;;;;5069430;28;20570;-66
2022/01/01 12:11:54;;;;;;;1.83;1.40;;;18.00;42.90;;;;;;5069102;28;20545;-67
2022/01/01 12:14:23;;;;;;;1.20;1.10;;;18.00;42.90;;;;;;5069363;28;20248;-66
2022/01/01 12:16:50;;;;;;;1.33;1.23;;;18.10;43.10;;;;;;5068442;28;20453;-66
2022/01/01 12:19:20;;;;;;;1.20;1.10;;;18.10;43.10;;;;;;5066708;28;20442;-66
2022/01/01 12:21:48;;;;;;;1.30;1.20;;;18.10;43.10;;;;;;5069332;28;20479;-66
2022/01/01 12:24:19;;;;;;;1.30;1.20;;;18.00;43.00;;;;;;5051800;28;20979;-66
2022/01/01 12:26:54;;;;;;;1.30;1.20;;;18.00;42.90;;;;;;5067316;28;20429;-66
2022/01/01 12:29:25;;;;;;;1.53;1.43;;;18.00;43.00;;;;;;5069301;28;20452;-66
2022/01/01 12:31:55;;;;;;;1.30;1.20;;;18.10;43.00;;;;;;5050968;28;21001;-66
2022/01/01 12:34:22;;;;;;;1.37;1.27;;;18.00;43.00;;;;;;5065627;28;20409;-66
2022/01/01 12:36:55;;;;;;;1.60;1.50;;;18.00;43.10;;;;;;5067584;28;20447;-66
2022/01/01 12:39:21;;;;;;;1.40;1.30;;;18.10;43.90;;;;;;5067718;28;20424;-66
2022/01/01 12:41:47;;;;;;;1.30;1.20;;;18.00;43.00;;;;;;5069263;28;20452;-66
2022/01/01 12:44:15;;;;;;;1.20;1.10;;;18.00;43.10;;;;;;5051428;28;20477;-66
2022/01/01 12:46:52;;;;;;;1.40;1.30;;;18.00;43.00;;;;;;5068533;28;20303;-66
2022/01/01 12:49:18;;;;;;;1.43;1.33;;;18.10;43.20;;;;;;5072020;28;20484;-66
2022/01/01 12:51:44;;;;;;;1.40;1.30;;;18.10;43.10;;;;;;5072913;28;20491;-66
2022/01/01 12:54:16;;;;;;;1.20;1.10;;;18.00;43.00;;;;;;5073549;28;20433;-66
2022/01/01 12:56:45;;;;;;;1.07;1.00;;;18.10;43.90;;;;;;5073275;28;20587;-66